Time;durP1;ratioP1;P1;durP2;ratioP2;P2;SDS_P1;SDS_P2;PMS_P1;PMS_P2;Temp;Humidity;BMP_temperature;BMP_pressure;BME280_temperature;BME280_humidity;BME280_pressure;Samples;Min_cycle;Max_cycle;Signal;HPM_P1;HPM_P2
2021/07/04 00:02:16;;;;;;;15.57;14.47;;;23.80;96.30;;;;;;3514308;40;20580;-65
2021/07/04 00:04:45;;;;;;;14.63;13.63;;;23.80;96.30;;;;;;3521946;40;20476;-66
2021/07/04 00:07:13;;;;;;;13.67;12.77;;;23.80;96.30;;;;;;3523875;40;20448;-65
2021/07/04 00:09:41;;;;;;;13.83;13.00;;;23.80;96.30;;;;;;3524206;40;20467;-66
2021/07/04 00:12:10;;;;;;;15.50;14.50;;;23.80;96.30;;;;;;3524139;40;20864;-65
2021/07/04 00:14:39;;;;;;;15.53;14.43;;;23.80;96.20;;;;;;3523801;40;20558;-65
2021/07/04 00:17:08;;;;;;;14.50;13.50;;;23.80;96.20;;;;;;3523963;40;20554;-65
2021/07/04 00:19:35;;;;;;;14.17;13.30;;;23.80;96.20;;;;;;3524562;40;20559;-65
2021/07/04 00:22:04;;;;;;;14.20;13.13;;;23.80;96.10;;;;;;3525951;40;20527;-66
2021/07/04 00:24:31;;;;;;;14.37;13.43;;;23.80;96.10;;;;;;3525869;40;20915;-65
2021/07/04 00:27:02;;;;;;;14.00;13.20;;;23.80;96.10;;;;;;3525957;40;20556;-65
2021/07/04 00:29:30;;;;;;;15.23;14.33;;;23.80;96.10;;;;;;3526656;40;20461;-66
2021/07/04 00:32:01;;;;;;;15.50;14.30;;;23.80;96.10;;;;;;3526846;40;20515;-65
2021/07/04 00:34:29;;;;;;;14.57;13.63;;;23.80;96.10;;;;;;3526634;40;20484;-65
2021/07/04 00:36:57;;;;;;;14.30;13.40;;;23.80;96.10;;;;;;3516966;40;20452;-66
2021/07/04 00:39:25;;;;;;;15.37;14.30;;;23.80;96.10;;;;;;3508461;40;20496;-65
2021/07/04 00:41:57;;;;;;;14.40;13.43;;;23.80;96.10;;;;;;3508619;40;20469;-65
2021/07/04 00:44:24;;;;;;;13.77;12.97;;;23.80;96.10;;;;;;3523495;40;20515;-65
2021/07/04 00:47:01;;;;;;;14.80;13.80;;;23.80;96.10;;;;;;3527115;40;20543;-65
2021/07/04 00:49:30;;;;;;;13.87;13.07;;;23.80;96.00;;;;;;3526692;40;20482;-65
2021/07/04 00:52:02;;;;;;;14.03;12.97;;;23.80;96.00;;;;;;3526732;40;20889;-65
2021/07/04 00:54:31;;;;;;;15.00;14.00;;;23.80;96.00;;;;;;3524943;40;20475;-65
2021/07/04 00:56:59;;;;;;;15.50;14.40;;;23.80;96.00;;;;;;3526577;40;20456;-66
2021/07/04 00:59:28;;;;;;;14.93;14.00;;;23.80;96.00;;;;;;3524887;40;20471;-66
2021/07/04 01:01:58;;;;;;;15.60;14.57;;;23.80;96.00;;;;;;3525406;40;20546;-65
2021/07/04 01:04:30;;;;;;;15.97;14.97;;;23.80;96.00;;;;;;3525542;40;20954;-65
2021/07/04 01:06:59;;;;;;;15.17;13.97;;;23.80;96.00;;;;;;3516786;40;20479;-65
2021/07/04 01:09:29;;;;;;;14.17;13.37;;;23.80;95.90;;;;;;3507384;40;20465;-66
2021/07/04 01:11:58;;;;;;;14.97;13.97;;;23.80;95.90;;;;;;3516578;40;20508;-65
2021/07/04 01:14:25;;;;;;;14.60;13.70;;;23.80;95.90;;;;;;3516686;40;20456;-65
2021/07/04 01:16:53;;;;;;;14.10;13.27;;;23.80;95.80;;;;;;3516045;40;20453;-65
2021/07/04 01:19:23;;;;;;;14.43;13.40;;;23.80;95.80;;;;;;3525013;40;20476;-65
2021/07/04 01:21:56;;;;;;;14.10;13.13;;;23.80;95.80;;;;;;3516916;40;20459;-65
2021/07/04 01:24:28;;;;;;;14.60;13.70;;;23.80;95.80;;;;;;3526679;40;20458;-65
2021/07/04 01:26:55;;;;;;;15.33;14.27;;;23.80;95.70;;;;;;3526559;40;20479;-65
2021/07/04 01:29:24;;;;;;;14.13;13.13;;;23.80;95.80;;;;;;3526675;40;20499;-65
2021/07/04 01:31:52;;;;;;;14.67;13.87;;;23.80;95.80;;;;;;3516868;40;20539;-66
2021/07/04 01:34:20;;;;;;;14.73;13.63;;;23.80;95.80;;;;;;3517084;40;20452;-66
2021/07/04 01:36:48;;;;;;;15.83;14.80;;;23.80;95.80;;;;;;3517026;40;20551;-65
2021/07/04 01:39:15;;;;;;;15.30;14.33;;;23.80;95.80;;;;;;3522136;40;20467;-65
2021/07/04 01:41:58;;;;;;;14.27;13.43;;;23.80;95.80;;;;;;3523801;40;21186;-66
2021/07/04 01:44:28;;;;;;;14.70;13.80;;;23.80;95.80;;;;;;3549074;40;20612;-66
2021/07/04 01:46:56;;;;;;;15.00;14.07;;;23.80;95.80;;;;;;3533950;40;20478;-66
2021/07/04 01:49:30;;;;;;;15.47;14.57;;;23.80;95.80;;;;;;3533780;40;20467;-66
2021/07/04 01:51:58;;;;;;;15.37;14.47;;;23.80;95.70;;;;;;3525723;40;20452;-65
2021/07/04 01:54:33;;;;;;;14.97;14.10;;;23.80;95.70;;;;;;3526279;40;20466;-66
2021/07/04 01:57:12;;;;;;;15.50;14.50;;;23.80;95.80;;;;;;3528056;40;20478;-65
2021/07/04 01:59:47;;;;;;;15.53;14.53;;;23.80;95.70;;;;;;3535830;40;20517;-66
2021/07/04 02:02:34;;;;;;;14.70;13.80;;;23.80;95.70;;;;;;3536305;40;20459;-65
2021/07/04 02:05:04;;;;;;;15.87;14.87;;;23.80;95.70;;;;;;3535375;40;20505;-65
2021/07/04 02:07:34;;;;;;;14.17;13.27;;;23.80;95.70;;;;;;3535688;40;20475;-65
2021/07/04 02:10:08;;;;;;;14.70;13.80;;;23.80;95.70;;;;;;3543384;40;21127;-66
2021/07/04 02:12:42;;;;;;;15.17;14.27;;;23.80;95.70;;;;;;3543417;40;20462;-65
2021/07/04 02:15:13;;;;;;;14.40;13.60;;;23.80;95.70;;;;;;3537057;40;20455;-65
2021/07/04 02:17:51;;;;;;;14.37;13.53;;;23.80;95.70;;;;;;3543986;40;20467;-65
2021/07/04 02:20:42;;;;;;;14.80;13.90;;;23.80;95.70;;;;;;3530459;40;20463;-66
2021/07/04 02:23:40;;;;;;;15.40;14.40;;;23.80;95.70;;;;;;3530425;40;20723;-65
2021/07/04 02:26:31;;;;;;;14.03;13.23;;;23.80;95.70;;;;;;3507297;40;20475;-65
2021/07/04 02:29:05;;;;;;;15.53;14.53;;;23.80;95.70;;;;;;3531608;40;20480;-65
2021/07/04 02:31:37;;;;;;;15.60;14.57;;;23.80;95.70;;;;;;3523230;40;20498;-65
2021/07/04 02:34:11;;;;;;;14.90;13.90;;;23.80;95.70;;;;;;3526575;40;20451;-65
2021/07/04 02:36:47;;;;;;;13.93;13.10;;;23.80;95.70;;;;;;3535454;40;20892;-65
2021/07/04 02:39:25;;;;;;;14.20;13.40;;;23.80;95.70;;;;;;3535583;40;20474;-65
2021/07/04 02:41:56;;;;;;;15.40;14.37;;;23.80;95.70;;;;;;3534035;40;20483;-65
2021/07/04 02:44:24;;;;;;;15.13;14.13;;;23.80;95.70;;;;;;3530594;40;21219;-65
2021/07/04 02:46:53;;;;;;;14.60;13.73;;;23.80;95.80;;;;;;3534625;40;20442;-65
2021/07/04 02:49:21;;;;;;;13.70;12.80;;;23.80;95.70;;;;;;3524669;40;20492;-65
2021/07/04 02:51:55;;;;;;;13.17;12.37;;;23.80;95.70;;;;;;3526018;40;21122;-65
2021/07/04 02:54:23;;;;;;;15.10;14.10;;;23.80;95.70;;;;;;3532681;40;20475;-65
2021/07/04 02:56:54;;;;;;;14.40;13.50;;;23.80;95.70;;;;;;3517336;40;20463;-66
2021/07/04 02:59:25;;;;;;;15.60;14.60;;;23.80;95.70;;;;;;3517336;40;20543;-65
2021/07/04 03:01:53;;;;;;;14.97;14.07;;;23.80;95.80;;;;;;3524699;40;20982;-66
2021/07/04 03:04:21;;;;;;;14.87;13.97;;;23.80;95.70;;;;;;3524735;40;20515;-66
2021/07/04 03:06:49;;;;;;;14.70;13.80;;;23.80;95.70;;;;;;3516286;40;20503;-65
2021/07/04 03:09:18;;;;;;;15.83;14.90;;;23.80;95.70;;;;;;3517127;40;20472;-66
2021/07/04 03:11:47;;;;;;;16.40;15.40;;;23.80;95.70;;;;;;3525659;40;20488;-66
2021/07/04 03:14:15;;;;;;;15.23;14.17;;;23.80;95.70;;;;;;3525717;40;20440;-65
2021/07/04 03:16:44;;;;;;;14.70;13.80;;;23.80;95.70;;;;;;3525033;40;21099;-65
2021/07/04 03:19:12;;;;;;;16.30;15.20;;;23.80;95.70;;;;;;3524373;40;20506;-65
2021/07/04 03:21:40;;;;;;;17.67;16.47;;;23.80;95.60;;;;;;3516225;40;20480;-66
2021/07/04 03:24:10;;;;;;;16.00;14.90;;;23.80;95.60;;;;;;3525570;40;20519;-65
2021/07/04 03:26:38;;;;;;;15.07;14.27;;;23.80;95.60;;;;;;3515984;40;20531;-66
2021/07/04 03:29:08;;;;;;;16.13;15.13;;;23.80;95.60;;;;;;3525543;40;20452;-65
2021/07/04 03:31:45;;;;;;;15.13;14.30;;;23.80;95.70;;;;;;3516830;40;20880;-65
2021/07/04 03:34:17;;;;;;;16.07;15.10;;;23.80;95.60;;;;;;3525734;40;20523;-65
2021/07/04 03:36:47;;;;;;;15.40;14.40;;;23.80;95.60;;;;;;3525143;40;20463;-65
2021/07/04 03:39:14;;;;;;;15.60;14.70;;;23.80;95.60;;;;;;3526533;40;20455;-66
2021/07/04 03:41:44;;;;;;;15.80;14.80;;;23.80;95.60;;;;;;3533316;40;20475;-65
2021/07/04 03:44:14;;;;;;;15.00;14.10;;;23.80;95.60;;;;;;3531974;40;20483;-66
2021/07/04 03:46:45;;;;;;;15.50;14.57;;;23.80;95.60;;;;;;3516177;40;20496;-65
2021/07/04 03:49:13;;;;;;;16.03;15.03;;;23.80;95.60;;;;;;3514616;40;20576;-65
2021/07/04 03:51:58;;;;;;;15.70;14.60;;;23.80;95.60;;;;;;3534223;40;20538;-65
2021/07/04 03:54:28;;;;;;;15.73;14.53;;;23.80;95.60;;;;;;3523377;40;20935;-65
2021/07/04 03:56:56;;;;;;;14.90;14.00;;;23.80;95.60;;;;;;3525808;40;20464;-65
2021/07/04 03:59:25;;;;;;;15.07;14.17;;;23.80;95.60;;;;;;3516844;40;20479;-65
2021/07/04 04:01:56;;;;;;;16.07;15.17;;;23.80;95.60;;;;;;3530800;40;20897;-66
2021/07/04 04:04:23;;;;;;;15.27;14.37;;;23.80;95.60;;;;;;3535496;40;20463;-66
2021/07/04 04:06:51;;;;;;;15.33;14.50;;;23.80;95.70;;;;;;3525782;40;20466;-65
2021/07/04 04:09:20;;;;;;;16.30;15.30;;;23.80;95.60;;;;;;3526887;40;20725;-66
2021/07/04 04:11:58;;;;;;;17.20;16.10;;;23.80;95.60;;;;;;3524739;40;20734;-65
2021/07/04 04:14:34;;;;;;;15.20;14.30;;;23.80;95.60;;;;;;3533832;40;20511;-66
2021/07/04 04:17:05;;;;;;;16.30;15.30;;;23.80;95.60;;;;;;3534596;40;20455;-66
2021/07/04 04:19:39;;;;;;;16.10;15.10;;;23.80;95.60;;;;;;3534580;40;20758;-65
2021/07/04 04:22:07;;;;;;;15.40;14.50;;;23.80;95.50;;;;;;3531622;40;20873;-65
2021/07/04 04:24:40;;;;;;;15.57;14.67;;;23.80;95.50;;;;;;3525266;40;20486;-65
2021/07/04 04:27:09;;;;;;;16.33;15.33;;;23.80;95.50;;;;;;3534345;40;20576;-65
2021/07/04 04:29:37;;;;;;;16.20;15.30;;;23.80;95.50;;;;;;3518115;40;20478;-65
2021/07/04 04:32:07;;;;;;;15.50;14.50;;;23.80;95.60;;;;;;3534285;40;20459;-66
2021/07/04 04:34:36;;;;;;;14.93;14.13;;;23.80;95.60;;;;;;3526297;40;20474;-65
2021/07/04 04:37:05;;;;;;;15.67;14.47;;;23.80;95.60;;;;;;3525568;40;20573;-66
2021/07/04 04:39:34;;;;;;;16.53;15.40;;;23.80;95.60;;;;;;3530989;40;20531;-65
2021/07/04 04:42:02;;;;;;;17.13;16.13;;;23.80;95.60;;;;;;3521201;40;21155;-65
2021/07/04 04:44:29;;;;;;;15.67;14.77;;;23.80;95.60;;;;;;3515176;40;20543;-66
2021/07/04 04:46:57;;;;;;;16.43;15.37;;;23.90;95.60;;;;;;3516298;40;20518;-65
2021/07/04 04:49:26;;;;;;;15.97;15.07;;;23.90;95.50;;;;;;3524330;40;20472;-66
2021/07/04 04:51:54;;;;;;;15.70;14.70;;;23.90;95.50;;;;;;3525075;40;20444;-65
2021/07/04 04:54:21;;;;;;;15.43;14.33;;;23.90;95.50;;;;;;3524802;40;20546;-65
2021/07/04 04:56:49;;;;;;;15.87;14.87;;;23.90;95.60;;;;;;3524333;40;20451;-65
2021/07/04 04:59:17;;;;;;;16.30;15.30;;;23.90;95.60;;;;;;3524877;40;20518;-66
2021/07/04 05:01:44;;;;;;;16.03;15.03;;;23.90;95.50;;;;;;3524858;40;20488;-65
2021/07/04 05:04:11;;;;;;;17.63;16.47;;;23.90;95.50;;;;;;3519967;40;20476;-66
2021/07/04 05:06:41;;;;;;;16.17;15.17;;;23.90;95.50;;;;;;3534533;40;20447;-65
2021/07/04 05:09:12;;;;;;;16.80;15.80;;;23.90;95.50;;;;;;3536050;40;20469;-65
2021/07/04 05:11:44;;;;;;;16.27;15.30;;;23.90;95.60;;;;;;3535912;40;20462;-65
2021/07/04 05:14:12;;;;;;;15.90;14.90;;;23.90;95.60;;;;;;3535841;40;20949;-65
2021/07/04 05:16:42;;;;;;;15.50;14.50;;;23.90;95.60;;;;;;3536083;40;20698;-65
2021/07/04 05:19:11;;;;;;;15.60;14.70;;;23.90;95.60;;;;;;3527470;40;20474;-66
2021/07/04 05:21:41;;;;;;;16.57;15.37;;;23.90;95.60;;;;;;3536287;40;20457;-66
2021/07/04 05:24:12;;;;;;;15.63;14.63;;;23.90;95.60;;;;;;3535626;40;20857;-65
2021/07/04 05:26:39;;;;;;;16.03;15.00;;;23.90;95.60;;;;;;3519012;40;20455;-65
2021/07/04 05:29:09;;;;;;;15.70;14.70;;;23.90;95.60;;;;;;3534504;40;20462;-65
2021/07/04 05:31:37;;;;;;;16.30;15.30;;;23.90;95.60;;;;;;3534487;40;20475;-66
2021/07/04 05:34:05;;;;;;;16.63;15.70;;;23.90;95.60;;;;;;3535718;40;20540;-65
2021/07/04 05:36:34;;;;;;;15.37;14.47;;;23.90;95.60;;;;;;3535870;40;20470;-65
2021/07/04 05:39:02;;;;;;;15.33;14.43;;;23.90;95.60;;;;;;3535434;40;20474;-66
2021/07/04 05:41:30;;;;;;;16.83;15.73;;;24.00;95.70;;;;;;3535905;40;20470;-65
2021/07/04 05:43:58;;;;;;;16.60;15.60;;;23.90;95.70;;;;;;3535736;40;20537;-65
2021/07/04 05:46:26;;;;;;;16.20;15.20;;;23.90;95.70;;;;;;3535770;40;20518;-65
2021/07/04 05:48:55;;;;;;;15.60;14.60;;;24.00;95.70;;;;;;3535232;40;20879;-65
2021/07/04 05:51:25;;;;;;;16.77;15.77;;;23.90;96.00;;;;;;3535064;40;20948;-65
2021/07/04 05:53:53;;;;;;;16.33;15.33;;;23.90;95.70;;;;;;3535226;40;20462;-65
2021/07/04 05:56:22;;;;;;;16.87;15.80;;;23.90;95.70;;;;;;3534126;40;20483;-65
2021/07/04 05:58:50;;;;;;;16.07;15.00;;;23.90;95.70;;;;;;3534956;40;20463;-65
2021/07/04 06:01:17;;;;;;;15.70;14.80;;;23.90;95.70;;;;;;3536274;40;20791;-66
2021/07/04 06:03:44;;;;;;;16.10;15.10;;;23.90;95.70;;;;;;3534191;40;20541;-65
2021/07/04 06:06:11;;;;;;;15.63;14.63;;;23.90;95.70;;;;;;3525839;40;20538;-65
2021/07/04 06:08:38;;;;;;;16.77;15.67;;;23.90;95.70;;;;;;3534524;40;20455;-65
2021/07/04 06:11:07;;;;;;;16.70;15.70;;;23.90;95.70;;;;;;3534441;40;20553;-65
2021/07/04 06:13:36;;;;;;;16.17;15.20;;;23.90;95.70;;;;;;3534951;40;20455;-65
2021/07/04 06:16:03;;;;;;;15.83;14.93;;;23.90;95.70;;;;;;3534565;40;20474;-65
2021/07/04 06:18:33;;;;;;;15.80;14.90;;;23.90;95.70;;;;;;3534525;40;20510;-65
2021/07/04 06:21:02;;;;;;;15.57;14.67;;;23.90;95.70;;;;;;3534924;40;20554;-65
2021/07/04 06:23:30;;;;;;;16.90;15.80;;;23.90;95.70;;;;;;3535454;40;20927;-66
2021/07/04 06:25:58;;;;;;;15.17;14.27;;;23.90;95.70;;;;;;3534415;40;20557;-65
2021/07/04 06:28:25;;;;;;;14.40;13.60;;;24.00;95.80;;;;;;3524761;40;20485;-66
2021/07/04 06:30:55;;;;;;;15.30;14.40;;;23.90;95.70;;;;;;3533728;40;21242;-65
2021/07/04 06:33:23;;;;;;;16.40;15.40;;;24.00;95.80;;;;;;3533752;40;20558;-66
2021/07/04 06:35:51;;;;;;;17.60;16.40;;;24.00;95.80;;;;;;3533340;40;20801;-65
2021/07/04 06:38:18;;;;;;;15.83;14.90;;;24.00;95.80;;;;;;3533607;40;20565;-65
2021/07/04 06:40:47;;;;;;;16.03;15.13;;;24.00;95.80;;;;;;3523503;40;20572;-65
2021/07/04 06:43:14;;;;;;;16.70;15.60;;;24.00;95.80;;;;;;3532433;40;20467;-66
2021/07/04 06:45:45;;;;;;;16.77;15.77;;;24.00;95.80;;;;;;3533148;40;20497;-65
2021/07/04 06:48:16;;;;;;;15.07;14.17;;;24.00;95.80;;;;;;3534077;40;20553;-65
2021/07/04 06:50:43;;;;;;;15.57;14.70;;;24.00;95.80;;;;;;3534503;40;20465;-65
2021/07/04 06:53:10;;;;;;;15.90;14.90;;;24.00;95.80;;;;;;3534954;40;20494;-66
2021/07/04 06:55:39;;;;;;;15.13;14.33;;;24.00;95.80;;;;;;3533919;40;21213;-66
2021/07/04 06:58:06;;;;;;;16.53;15.53;;;24.00;95.80;;;;;;3534043;40;20781;-65
2021/07/04 07:00:35;;;;;;;15.33;14.33;;;24.00;95.80;;;;;;3534524;40;20509;-65
2021/07/04 07:03:04;;;;;;;15.87;14.87;;;24.00;95.80;;;;;;3533656;40;20465;-66
2021/07/04 07:05:33;;;;;;;14.93;14.00;;;24.00;95.80;;;;;;3533579;40;20474;-66
2021/07/04 07:08:00;;;;;;;15.67;14.67;;;24.00;95.70;;;;;;3533539;40;21304;-65
2021/07/04 07:10:29;;;;;;;14.47;13.67;;;24.00;95.70;;;;;;3533622;40;20467;-66
2021/07/04 07:12:58;;;;;;;13.83;13.03;;;24.00;95.70;;;;;;3533509;40;21030;-65
2021/07/04 07:15:31;;;;;;;15.23;14.10;;;24.00;95.70;;;;;;3533405;40;20448;-65
2021/07/04 07:18:00;;;;;;;14.30;13.40;;;24.10;95.70;;;;;;3532548;40;20467;-65
2021/07/04 07:20:28;;;;;;;13.80;13.00;;;24.00;95.60;;;;;;3533358;40;20466;-65
2021/07/04 07:22:57;;;;;;;14.00;13.20;;;24.10;95.70;;;;;;3533865;40;21083;-65
2021/07/04 07:25:34;;;;;;;14.20;13.30;;;24.00;95.60;;;;;;3532285;40;20462;-65
2021/07/04 07:28:02;;;;;;;14.30;13.50;;;24.00;95.60;;;;;;3532693;40;20513;-66
2021/07/04 07:30:31;;;;;;;13.57;12.77;;;24.00;95.60;;;;;;3530623;40;20490;-65
2021/07/04 07:32:58;;;;;;;15.30;14.50;;;24.00;95.60;;;;;;3533210;40;20486;-66
2021/07/04 07:35:27;;;;;;;14.20;13.40;;;24.00;95.60;;;;;;3524557;40;20585;-66
2021/07/04 07:38:00;;;;;;;13.73;13.03;;;24.00;95.70;;;;;;3540197;40;20846;-65
2021/07/04 07:40:29;;;;;;;14.10;13.30;;;24.00;95.60;;;;;;3534211;40;21070;-66
2021/07/04 07:42:56;;;;;;;12.67;12.07;;;24.00;95.70;;;;;;3532497;40;20561;-67
2021/07/04 07:45:25;;;;;;;11.93;11.43;;;24.00;96.20;;;;;;3532185;40;20554;-67
2021/07/04 07:47:59;;;;;;;12.10;11.50;;;24.00;96.30;;;;;;3531839;40;20473;-66
2021/07/04 07:50:29;;;;;;;11.40;10.70;;;24.00;96.70;;;;;;3522087;40;20506;-67
2021/07/04 07:52:57;;;;;;;11.17;10.50;;;24.00;97.20;;;;;;3531898;40;21058;-67
2021/07/04 07:55:25;;;;;;;12.57;11.33;;;24.00;97.40;;;;;;3530819;40;20455;-67
2021/07/04 07:57:52;;;;;;;11.73;10.80;;;24.00;97.40;;;;;;3530613;40;20576;-67
2021/07/04 08:00:21;;;;;;;11.77;11.17;;;24.00;97.20;;;;;;3531495;40;20934;-67
2021/07/04 08:02:49;;;;;;;11.93;11.33;;;24.00;97.10;;;;;;3530486;40;20713;-67
2021/07/04 08:05:21;;;;;;;12.20;11.40;;;24.00;97.10;;;;;;3531024;40;20463;-67
2021/07/04 08:07:49;;;;;;;11.47;10.90;;;24.00;97.00;;;;;;3529861;40;21087;-67
2021/07/04 08:10:21;;;;;;;12.00;11.40;;;24.00;97.00;;;;;;3544416;40;20494;-66
2021/07/04 08:12:48;;;;;;;12.00;11.40;;;24.00;96.80;;;;;;3530220;40;20494;-67
2021/07/04 08:15:17;;;;;;;12.70;12.00;;;24.00;96.70;;;;;;3527721;40;21289;-67
2021/07/04 08:17:46;;;;;;;13.23;12.43;;;24.10;96.70;;;;;;3531792;40;20906;-66
2021/07/04 08:20:16;;;;;;;11.30;10.80;;;24.10;96.60;;;;;;3531779;40;20474;-67
2021/07/04 08:22:44;;;;;;;10.83;10.33;;;24.10;96.70;;;;;;3532337;40;20569;-66
2021/07/04 08:25:14;;;;;;;11.23;10.73;;;24.00;97.20;;;;;;3530188;40;20514;-67
2021/07/04 08:27:44;;;;;;;10.83;10.43;;;24.00;97.00;;;;;;3529368;40;20474;-67
2021/07/04 08:30:14;;;;;;;11.20;10.60;;;24.00;97.20;;;;;;3530838;40;20541;-67
2021/07/04 08:32:42;;;;;;;12.07;11.47;;;23.90;97.00;;;;;;3531757;40;20733;-67
2021/07/04 08:35:12;;;;;;;11.13;10.63;;;23.90;96.90;;;;;;3531043;40;20986;-67
2021/07/04 08:37:39;;;;;;;12.70;12.10;;;24.00;96.80;;;;;;3538100;40;20481;-67
2021/07/04 08:40:08;;;;;;;13.90;13.10;;;24.00;96.70;;;;;;3531778;40;20573;-67
2021/07/04 08:42:35;;;;;;;13.60;12.77;;;24.10;96.70;;;;;;3532748;40;20469;-66
2021/07/04 08:45:06;;;;;;;13.00;12.40;;;24.10;96.50;;;;;;3534466;40;20510;-67
2021/07/04 08:47:33;;;;;;;13.63;12.93;;;24.10;96.60;;;;;;3533595;40;20850;-67
2021/07/04 08:50:03;;;;;;;13.77;12.83;;;24.10;96.60;;;;;;3534346;40;20676;-67
2021/07/04 08:52:32;;;;;;;13.00;12.40;;;24.10;96.50;;;;;;3533714;40;20471;-67
2021/07/04 08:55:02;;;;;;;14.27;13.47;;;24.10;96.50;;;;;;3533107;40;20467;-66
2021/07/04 08:57:30;;;;;;;12.80;11.80;;;24.10;96.50;;;;;;3531738;40;20599;-67
2021/07/04 08:59:59;;;;;;;13.43;12.73;;;24.10;96.50;;;;;;3532434;40;20478;-67
2021/07/04 09:02:33;;;;;;;12.63;12.03;;;24.10;96.40;;;;;;3533532;40;20463;-67
2021/07/04 09:05:04;;;;;;;12.37;11.67;;;24.10;96.40;;;;;;3532098;40;20528;-67
2021/07/04 09:07:33;;;;;;;11.63;11.03;;;24.20;96.40;;;;;;3533399;40;21014;-67
2021/07/04 09:10:04;;;;;;;13.57;12.80;;;24.20;96.40;;;;;;3533624;40;20581;-67
2021/07/04 09:12:39;;;;;;;13.53;12.83;;;24.20;96.30;;;;;;3534269;40;20450;-67
2021/07/04 09:15:13;;;;;;;14.50;13.60;;;24.20;96.30;;;;;;3533069;40;21079;-67
2021/07/04 09:17:44;;;;;;;14.13;13.43;;;24.20;96.30;;;;;;3533831;40;20564;-67
2021/07/04 09:20:15;;;;;;;14.43;13.73;;;24.20;96.30;;;;;;3533838;40;20482;-67
2021/07/04 09:22:45;;;;;;;14.00;13.20;;;24.20;96.20;;;;;;3534387;40;20474;-67
2021/07/04 09:25:14;;;;;;;14.17;13.37;;;24.20;96.20;;;;;;3533625;40;20475;-67
2021/07/04 09:28:00;;;;;;;14.30;13.57;;;24.20;96.20;;;;;;3532338;40;21180;-66
2021/07/04 09:30:37;;;;;;;13.90;13.20;;;24.20;96.20;;;;;;3525151;40;20870;-66
2021/07/04 09:33:18;;;;;;;15.43;14.63;;;24.20;96.20;;;;;;3533089;40;20486;-67
2021/07/04 09:35:55;;;;;;;14.03;13.40;;;24.20;96.20;;;;;;3533905;40;20481;-67
2021/07/04 09:38:23;;;;;;;14.80;14.00;;;24.20;96.10;;;;;;3533800;40;20861;-67
2021/07/04 09:40:51;;;;;;;15.40;14.50;;;24.20;96.10;;;;;;3533276;40;20515;-66
2021/07/04 09:43:19;;;;;;;15.57;14.57;;;24.20;96.10;;;;;;3533253;40;20945;-67
2021/07/04 09:45:50;;;;;;;15.30;14.37;;;24.20;96.10;;;;;;3524474;40;20776;-67
2021/07/04 09:48:20;;;;;;;13.70;13.00;;;24.20;96.10;;;;;;3533472;40;20510;-67
2021/07/04 09:50:50;;;;;;;14.40;13.60;;;24.20;96.10;;;;;;3523742;40;21223;-66
2021/07/04 09:53:19;;;;;;;13.60;12.90;;;24.20;96.10;;;;;;3533824;40;20478;-66
2021/07/04 09:55:50;;;;;;;13.63;12.93;;;24.20;96.00;;;;;;3532797;40;20623;-67
2021/07/04 09:58:20;;;;;;;13.83;13.13;;;24.20;96.00;;;;;;3532941;40;20495;-67
2021/07/04 10:00:48;;;;;;;13.30;12.60;;;24.10;96.10;;;;;;3532458;40;20586;-66
2021/07/04 10:03:19;;;;;;;12.60;12.00;;;24.10;96.00;;;;;;3531494;40;20786;-66
2021/07/04 10:06:02;;;;;;;13.60;12.80;;;24.10;96.00;;;;;;3531255;40;20479;-66
2021/07/04 10:08:31;;;;;;;14.27;13.47;;;24.10;96.10;;;;;;3528669;40;20483;-66
2021/07/04 10:11:02;;;;;;;14.50;13.70;;;24.10;96.00;;;;;;3530521;40;20471;-66
2021/07/04 10:13:31;;;;;;;14.40;13.60;;;24.10;96.00;;;;;;3532721;40;21142;-66
2021/07/04 10:15:59;;;;;;;14.33;13.33;;;24.20;96.00;;;;;;3527549;40;20498;-66
2021/07/04 10:18:29;;;;;;;13.57;12.87;;;24.10;96.00;;;;;;3522689;40;20566;-66
2021/07/04 10:20:57;;;;;;;14.43;13.50;;;24.20;96.00;;;;;;3522588;40;20534;-66
2021/07/04 10:23:27;;;;;;;14.80;13.80;;;24.20;96.00;;;;;;3523095;40;20470;-65
2021/07/04 10:25:57;;;;;;;14.80;13.90;;;24.20;96.00;;;;;;3522192;40;20474;-66
2021/07/04 10:28:27;;;;;;;14.70;13.87;;;24.20;96.10;;;;;;3523094;40;20448;-66
2021/07/04 10:30:56;;;;;;;14.07;13.17;;;24.20;96.00;;;;;;3522435;40;20480;-65
2021/07/04 10:33:26;;;;;;;15.33;14.30;;;24.20;96.00;;;;;;3523345;40;20475;-65
2021/07/04 10:36:14;;;;;;;14.73;13.00;;;24.20;96.00;;;;;;3522804;40;20475;-66
2021/07/04 10:38:56;;;;;;;15.63;14.60;;;24.20;96.10;;;;;;3522246;40;20523;-65
2021/07/04 10:41:28;;;;;;;15.17;14.00;;;24.20;96.00;;;;;;3515444;40;21051;-66
2021/07/04 10:44:09;;;;;;;16.23;15.00;;;24.20;96.10;;;;;;3522844;40;20455;-66
2021/07/04 10:47:13;;;;;;;15.53;14.53;;;24.20;96.10;;;;;;3522131;40;20964;-65
2021/07/04 10:49:53;;;;;;;15.10;14.00;;;24.20;96.10;;;;;;3521263;40;20947;-66
2021/07/04 10:52:24;;;;;;;15.93;14.53;;;24.20;96.00;;;;;;3521609;40;20569;-66
2021/07/04 10:54:56;;;;;;;15.53;14.53;;;24.20;96.00;;;;;;3520653;40;21266;-66
2021/07/04 10:57:29;;;;;;;15.67;14.67;;;24.20;96.00;;;;;;3521251;40;20471;-66
2021/07/04 11:00:20;;;;;;;15.17;14.17;;;24.20;96.00;;;;;;3520277;40;20542;-66
2021/07/04 11:02:50;;;;;;;15.20;14.20;;;24.20;96.00;;;;;;3521317;40;20448;-66
2021/07/04 11:05:39;;;;;;;15.70;14.70;;;24.20;96.00;;;;;;3520832;40;21099;-66
2021/07/04 11:08:12;;;;;;;15.63;14.67;;;24.20;96.00;;;;;;3521606;40;20468;-66
2021/07/04 11:10:54;;;;;;;15.83;14.80;;;24.20;96.00;;;;;;3520884;40;20487;-66
2021/07/04 11:13:34;;;;;;;15.03;13.93;;;24.20;95.90;;;;;;3520743;40;20733;-66
2021/07/04 11:16:11;;;;;;;15.50;14.50;;;24.20;96.00;;;;;;3521794;40;20456;-65
2021/07/04 11:18:40;;;;;;;15.67;14.73;;;24.20;95.90;;;;;;3516215;40;20970;-66
2021/07/04 11:21:08;;;;;;;16.30;15.30;;;24.20;95.90;;;;;;3518203;40;20503;-66
2021/07/04 11:23:38;;;;;;;15.67;14.67;;;24.20;95.90;;;;;;3521843;40;20607;-66
2021/07/04 11:26:17;;;;;;;15.13;14.23;;;24.20;95.90;;;;;;3512024;40;20475;-65
2021/07/04 11:28:49;;;;;;;15.10;14.20;;;24.20;95.90;;;;;;3522339;40;20475;-66
2021/07/04 11:31:32;;;;;;;15.27;14.37;;;24.20;95.90;;;;;;3521514;40;20776;-66
2021/07/04 11:34:07;;;;;;;15.10;14.20;;;24.20;95.80;;;;;;3520980;40;20455;-66
2021/07/04 11:36:34;;;;;;;15.40;14.47;;;24.20;95.80;;;;;;3521000;40;20486;-66
2021/07/04 11:39:07;;;;;;;15.37;14.40;;;24.20;95.80;;;;;;3521974;40;21164;-65
2021/07/04 11:41:37;;;;;;;15.07;14.17;;;24.20;95.80;;;;;;3522035;40;20456;-66
2021/07/04 11:44:07;;;;;;;13.90;13.10;;;24.20;96.00;;;;;;3521596;40;20479;-66
2021/07/04 11:46:36;;;;;;;14.07;13.17;;;24.20;95.70;;;;;;3519922;40;20500;-66
2021/07/04 11:49:08;;;;;;;14.73;13.90;;;24.20;95.70;;;;;;3520293;40;20479;-66
2021/07/04 11:51:46;;;;;;;14.30;13.40;;;24.20;95.70;;;;;;3522562;40;20456;-66
2021/07/04 11:54:18;;;;;;;14.60;13.80;;;24.20;95.70;;;;;;3521598;40;20475;-66
2021/07/04 11:56:50;;;;;;;14.97;14.07;;;24.20;95.70;;;;;;3521731;40;21035;-66
2021/07/04 11:59:22;;;;;;;15.13;13.97;;;24.20;95.70;;;;;;3522281;40;20468;-66
2021/07/04 12:01:51;;;;;;;14.70;13.80;;;24.20;95.70;;;;;;3521656;40;20491;-66
2021/07/04 12:04:32;;;;;;;14.20;13.40;;;24.20;95.70;;;;;;3521409;40;20479;-66
2021/07/04 12:07:03;;;;;;;15.20;14.10;;;24.20;95.70;;;;;;3521540;40;20476;-66
2021/07/04 12:09:44;;;;;;;14.50;13.70;;;24.20;95.70;;;;;;3521213;40;20476;-65
2021/07/04 12:12:16;;;;;;;15.43;14.43;;;24.20;95.70;;;;;;3521661;40;20479;-65
2021/07/04 12:14:45;;;;;;;15.40;14.50;;;24.20;95.70;;;;;;3522823;40;20452;-66
2021/07/04 12:17:18;;;;;;;13.93;13.23;;;24.20;95.70;;;;;;3522457;40;20479;-66
2021/07/04 12:19:52;;;;;;;14.73;13.83;;;24.20;95.70;;;;;;3516127;40;20730;-66
2021/07/04 12:22:21;;;;;;;14.87;13.87;;;24.20;95.60;;;;;;3523215;40;20478;-66
2021/07/04 12:24:51;;;;;;;14.90;14.00;;;24.20;95.70;;;;;;3523615;40;20470;-66
2021/07/04 12:27:20;;;;;;;14.80;13.70;;;24.20;95.70;;;;;;3523386;40;20528;-66
2021/07/04 12:30:06;;;;;;;14.83;14.00;;;24.20;95.60;;;;;;3521640;40;20479;-66
2021/07/04 12:32:40;;;;;;;15.17;14.20;;;24.20;95.70;;;;;;3521297;40;20876;-65
2021/07/04 12:35:09;;;;;;;15.63;14.73;;;24.20;95.70;;;;;;3514075;40;20468;-66
2021/07/04 12:37:38;;;;;;;14.90;14.00;;;24.20;95.60;;;;;;3521176;40;20487;-66
2021/07/04 12:40:12;;;;;;;15.40;14.40;;;24.20;95.60;;;;;;3519907;40;20479;-66
2021/07/04 12:42:42;;;;;;;15.40;14.50;;;24.20;95.60;;;;;;3523213;40;20470;-66
2021/07/04 12:45:13;;;;;;;15.67;14.67;;;24.20;95.60;;;;;;3522003;40;20558;-66
2021/07/04 12:47:41;;;;;;;15.27;14.40;;;24.20;95.60;;;;;;3523048;40;20468;-66